Randleman, North Carolina
Current Conditions -  °F | °C
As of 11:35 AM on Monday 24 Nov 2014 (Local Time) from KHBI Reporting Station
Broken Clouds Broken Clouds  
Wind Chill: 66°   Ceiling: 2900
Heat Index: 66°   Visibility: 10mi
Dew Point: 57°   Wind: 13mph
Humidity: 74%   Direction: 210°SSW
Pressure: 29.84"   Gusts: 18mph
Location:  35.82°N, 79.8°W
Report Text: KHBI 241635Z AUTO 21011G16KT 10SM SCT025 BKN029 BKN034 19/14 A2984 RMK AO2 T01880141
Loading
Personal Weather Stations






























Interactive Weather Map New forecast layout! Learn more

10-Day Weather Forecast

Advertisements
Track Severe Weather on mobile